Mc Kenna, Washington
Current Conditions -  °F | °C
As of 6:58 AM on Tuesday 21 Oct 2014 (Local Time) from KGRF Reporting Station
Overcast Overcast  
Wind Chill: 54°   Ceiling: 3300
Heat Index: 54°   Visibility: 10mi
Dew Point: 52°   Wind: 6mph
Humidity: 92%   Direction: 150°SSE
Pressure: 29.88"   Gusts: NA
Location:  46.9238°N, 122.553°W
Report Text: KGRF 211358Z AUTO 15005KT 10SM FEW013 BKN033 BKN040 OVC055 12/11 A2988 RMK AO2 SLP122 T01230110 PWINO $
Loading
Personal Weather Stations






























Interactive Weather Map
Tropical Storm Tracking
New forecast layout! Learn more

10-Day Weather Forecast

Advertisements
Track Severe Weather on mobile